sensor_id;sensor_type;location;lat;lon;timestamp;P1;durP1;ratioP1;P2;durP2;ratioP2
23270;SDS011;11804;51.118;17.058;2023-08-20T15:33:31;9.03;;;4.47;;
23270;SDS011;11804;51.118;17.058;2023-08-20T15:36:00;3.70;;;3.10;;
23270;SDS011;11804;51.118;17.058;2023-08-20T15:38:28;5.53;;;3.65;;
23270;SDS011;11804;51.118;17.058;2023-08-20T15:40:55;4.25;;;3.42;;
23270;SDS011;11804;51.118;17.058;2023-08-20T15:43:25;4.92;;;3.90;;
23270;SDS011;11804;51.118;17.058;2023-08-20T15:45:52;4.58;;;3.80;;
23270;SDS011;11804;51.118;17.058;2023-08-20T15:48:20;5.87;;;3.95;;
23270;SDS011;11804;51.118;17.058;2023-08-20T15:50:47;4.72;;;3.52;;
23270;SDS011;11804;51.118;17.058;2023-08-20T15:53:15;5.17;;;4.03;;
23270;SDS011;11804;51.118;17.058;2023-08-20T15:55:44;4.12;;;2.85;;
23270;SDS011;11804;51.118;17.058;2023-08-20T15:58:12;5.12;;;3.10;;
23270;SDS011;11804;51.118;17.058;2023-08-20T16:00:40;3.58;;;3.10;;
23270;SDS011;11804;51.118;17.058;2023-08-20T16:03:08;3.70;;;3.10;;
23270;SDS011;11804;51.118;17.058;2023-08-20T16:05:37;3.98;;;3.12;;
23270;SDS011;11804;51.118;17.058;2023-08-20T16:08:06;4.25;;;2.92;;
23270;SDS011;11804;51.118;17.058;2023-08-20T16:10:33;3.62;;;2.98;;
23270;SDS011;11804;51.118;17.058;2023-08-20T16:13:01;4.83;;;3.58;;
23270;SDS011;11804;51.118;17.058;2023-08-20T16:15:30;5.22;;;3.35;;
23270;SDS011;11804;51.118;17.058;2023-08-20T16:17:58;6.17;;;4.00;;
23270;SDS011;11804;51.118;17.058;2023-08-20T16:20:25;5.03;;;3.87;;
23270;SDS011;11804;51.118;17.058;2023-08-20T16:22:53;4.15;;;3.47;;
23270;SDS011;11804;51.118;17.058;2023-08-20T16:27:10;6.28;;;3.65;;
23270;SDS011;11804;51.118;17.058;2023-08-20T16:29:38;4.67;;;3.65;;
23270;SDS011;11804;51.118;17.058;2023-08-20T16:32:05;5.62;;;3.72;;
23270;SDS011;11804;51.118;17.058;2023-08-20T16:34:33;4.72;;;3.20;;
23270;SDS011;11804;51.118;17.058;2023-08-20T16:37:01;5.25;;;3.75;;
23270;SDS011;11804;51.118;17.058;2023-08-20T16:39:29;6.37;;;4.10;;
23270;SDS011;11804;51.118;17.058;2023-08-20T16:41:57;4.53;;;3.60;;
23270;SDS011;11804;51.118;17.058;2023-08-20T16:44:24;8.10;;;4.17;;
23270;SDS011;11804;51.118;17.058;2023-08-20T16:46:52;4.92;;;3.80;;
23270;SDS011;11804;51.118;17.058;2023-08-20T16:49:19;8.95;;;3.60;;
23270;SDS011;11804;51.118;17.058;2023-08-20T16:51:47;5.55;;;3.90;;
23270;SDS011;11804;51.118;17.058;2023-08-20T16:54:14;5.28;;;3.70;;
23270;SDS011;11804;51.118;17.058;2023-08-20T16:56:42;4.55;;;3.62;;
23270;SDS011;11804;51.118;17.058;2023-08-20T16:59:09;5.30;;;3.62;;
23270;SDS011;11804;51.118;17.058;2023-08-20T17:01:37;5.37;;;3.95;;
23270;SDS011;11804;51.118;17.058;2023-08-20T17:04:05;6.35;;;3.65;;
23270;SDS011;11804;51.118;17.058;2023-08-20T17:06:32;5.85;;;4.15;;
23270;SDS011;11804;51.118;17.058;2023-08-20T17:09:00;6.17;;;4.25;;
23270;SDS011;11804;51.118;17.058;2023-08-20T17:11:29;5.22;;;3.85;;
23270;SDS011;11804;51.118;17.058;2023-08-20T17:13:57;8.90;;;5.00;;
23270;SDS011;11804;51.118;17.058;2023-08-20T17:16:24;9.08;;;4.53;;
23270;SDS011;11804;51.118;17.058;2023-08-20T17:18:52;6.42;;;4.03;;
23270;SDS011;11804;51.118;17.058;2023-08-20T17:21:19;6.33;;;4.33;;
23270;SDS011;11804;51.118;17.058;2023-08-20T17:23:48;6.72;;;4.40;;
23270;SDS011;11804;51.118;17.058;2023-08-20T17:26:15;7.33;;;4.90;;
23270;SDS011;11804;51.118;17.058;2023-08-20T17:28:43;7.92;;;5.15;;
23270;SDS011;11804;51.118;17.058;2023-08-20T17:31:10;7.30;;;4.30;;
23270;SDS011;11804;51.118;17.058;2023-08-20T17:33:38;6.58;;;4.70;;
23270;SDS011;11804;51.118;17.058;2023-08-20T17:36:08;6.37;;;4.65;;
23270;SDS011;11804;51.118;17.058;2023-08-20T17:38:36;8.98;;;5.28;;
23270;SDS011;11804;51.118;17.058;2023-08-20T17:41:03;10.70;;;5.35;;
23270;SDS011;11804;51.118;17.058;2023-08-20T17:43:31;9.53;;;5.40;;
23270;SDS011;11804;51.118;17.058;2023-08-20T17:45:59;5.75;;;4.30;;
23270;SDS011;11804;51.118;17.058;2023-08-20T17:48:27;7.78;;;5.05;;
23270;SDS011;11804;51.118;17.058;2023-08-20T17:50:54;5.85;;;4.10;;
23270;SDS011;11804;51.118;17.058;2023-08-20T17:53:23;7.28;;;5.10;;
23270;SDS011;11804;51.118;17.058;2023-08-20T17:55:52;8.40;;;5.20;;
23270;SDS011;11804;51.118;17.058;2023-08-20T17:58:21;7.05;;;4.90;;
23270;SDS011;11804;51.118;17.058;2023-08-20T18:00:49;8.55;;;5.60;;
23270;SDS011;11804;51.118;17.058;2023-08-20T18:03:17;7.45;;;4.90;;
23270;SDS011;11804;51.118;17.058;2023-08-20T18:05:45;10.90;;;5.37;;
23270;SDS011;11804;51.118;17.058;2023-08-20T18:08:12;9.95;;;5.40;;
23270;SDS011;11804;51.118;17.058;2023-08-20T18:10:40;8.20;;;5.10;;
23270;SDS011;11804;51.118;17.058;2023-08-20T18:13:07;9.85;;;4.90;;
23270;SDS011;11804;51.118;17.058;2023-08-20T18:15:35;7.10;;;4.92;;
23270;SDS011;11804;51.118;17.058;2023-08-20T18:18:02;9.98;;;4.83;;
23270;SDS011;11804;51.118;17.058;2023-08-20T18:20:30;13.93;;;5.72;;
23270;SDS011;11804;51.118;17.058;2023-08-20T18:22:58;9.30;;;5.30;;
23270;SDS011;11804;51.118;17.058;2023-08-20T18:25:25;11.05;;;5.90;;
23270;SDS011;11804;51.118;17.058;2023-08-20T18:27:53;10.30;;;6.97;;
23270;SDS011;11804;51.118;17.058;2023-08-20T18:30:20;9.85;;;5.17;;
23270;SDS011;11804;51.118;17.058;2023-08-20T18:32:48;8.38;;;6.42;;
23270;SDS011;11804;51.118;17.058;2023-08-20T18:35:16;9.03;;;6.17;;
23270;SDS011;11804;51.118;17.058;2023-08-20T18:37:43;9.38;;;6.05;;
23270;SDS011;11804;51.118;17.058;2023-08-20T18:40:11;7.75;;;5.62;;
23270;SDS011;11804;51.118;17.058;2023-08-20T18:42:39;10.50;;;6.37;;
23270;SDS011;11804;51.118;17.058;2023-08-20T18:45:07;11.38;;;6.58;;
23270;SDS011;11804;51.118;17.058;2023-08-20T18:47:37;12.03;;;7.60;;
23270;SDS011;11804;51.118;17.058;2023-08-20T18:50:04;11.10;;;7.03;;
23270;SDS011;11804;51.118;17.058;2023-08-20T18:52:33;14.18;;;9.10;;
23270;SDS011;11804;51.118;17.058;2023-08-20T18:55:00;10.30;;;7.50;;
23270;SDS011;11804;51.118;17.058;2023-08-20T18:57:30;12.80;;;7.72;;
23270;SDS011;11804;51.118;17.058;2023-08-20T18:59:57;10.40;;;6.22;;
23270;SDS011;11804;51.118;17.058;2023-08-20T19:02:26;9.65;;;5.83;;
23270;SDS011;11804;51.118;17.058;2023-08-20T19:04:56;7.90;;;5.70;;
23270;SDS011;11804;51.118;17.058;2023-08-20T19:07:23;12.13;;;6.33;;
23270;SDS011;11804;51.118;17.058;2023-08-20T19:09:52;8.28;;;5.37;;
23270;SDS011;11804;51.118;17.058;2023-08-20T19:12:21;9.03;;;5.80;;
23270;SDS011;11804;51.118;17.058;2023-08-20T19:14:48;10.23;;;5.33;;
23270;SDS011;11804;51.118;17.058;2023-08-20T19:17:16;9.80;;;5.17;;
23270;SDS011;11804;51.118;17.058;2023-08-20T19:19:44;7.20;;;5.37;;
23270;SDS011;11804;51.118;17.058;2023-08-20T19:22:11;8.43;;;5.75;;
23270;SDS011;11804;51.118;17.058;2023-08-20T19:24:40;8.35;;;5.47;;
23270;SDS011;11804;51.118;17.058;2023-08-20T19:27:08;8.20;;;5.30;;
23270;SDS011;11804;51.118;17.058;2023-08-20T19:29:37;9.33;;;5.78;;
23270;SDS011;11804;51.118;17.058;2023-08-20T19:32:05;8.85;;;5.60;;
23270;SDS011;11804;51.118;17.058;2023-08-20T19:34:33;10.93;;;5.70;;
23270;SDS011;11804;51.118;17.058;2023-08-20T19:37:03;9.98;;;6.03;;
23270;SDS011;11804;51.118;17.058;2023-08-20T19:39:31;7.60;;;5.37;;
23270;SDS011;11804;51.118;17.058;2023-08-20T19:41:58;9.50;;;5.97;;
23270;SDS011;11804;51.118;17.058;2023-08-20T19:44:27;7.95;;;5.67;;
23270;SDS011;11804;51.118;17.058;2023-08-20T19:46:54;9.40;;;6.20;;
23270;SDS011;11804;51.118;17.058;2023-08-20T19:49:22;11.68;;;6.35;;
23270;SDS011;11804;51.118;17.058;2023-08-20T19:51:50;8.78;;;6.03;;
23270;SDS011;11804;51.118;17.058;2023-08-20T19:54:17;10.25;;;6.47;;
23270;SDS011;11804;51.118;17.058;2023-08-20T19:56:47;9.73;;;6.28;;
23270;SDS011;11804;51.118;17.058;2023-08-20T19:59:15;10.68;;;6.28;;
23270;SDS011;11804;51.118;17.058;2023-08-20T20:01:51;10.05;;;6.87;;
23270;SDS011;11804;51.118;17.058;2023-08-20T20:04:15;10.95;;;6.28;;
23270;SDS011;11804;51.118;17.058;2023-08-20T20:06:43;10.03;;;6.17;;
23270;SDS011;11804;51.118;17.058;2023-08-20T20:09:11;9.25;;;6.40;;
23270;SDS011;11804;51.118;17.058;2023-08-20T20:11:39;10.88;;;6.20;;
23270;SDS011;11804;51.118;17.058;2023-08-20T20:14:07;10.88;;;5.90;;
23270;SDS011;11804;51.118;17.058;2023-08-20T20:16:34;7.92;;;5.65;;
23270;SDS011;11804;51.118;17.058;2023-08-20T20:19:02;8.83;;;5.83;;
23270;SDS011;11804;51.118;17.058;2023-08-20T20:21:30;10.15;;;6.03;;
23270;SDS011;11804;51.118;17.058;2023-08-20T20:23:58;9.15;;;5.72;;
23270;SDS011;11804;51.118;17.058;2023-08-20T20:26:26;8.25;;;4.83;;
23270;SDS011;11804;51.118;17.058;2023-08-20T20:28:54;7.47;;;5.47;;
23270;SDS011;11804;51.118;17.058;2023-08-20T20:31:22;10.00;;;6.05;;
23270;SDS011;11804;51.118;17.058;2023-08-20T20:33:49;8.80;;;5.80;;
23270;SDS011;11804;51.118;17.058;2023-08-20T20:36:17;9.48;;;5.70;;
23270;SDS011;11804;51.118;17.058;2023-08-20T20:38:44;8.43;;;5.70;;
23270;SDS011;11804;51.118;17.058;2023-08-20T20:41:12;8.78;;;5.60;;
23270;SDS011;11804;51.118;17.058;2023-08-20T20:43:40;9.65;;;5.50;;
23270;SDS011;11804;51.118;17.058;2023-08-20T20:46:07;7.53;;;5.15;;
23270;SDS011;11804;51.118;17.058;2023-08-20T20:48:35;8.00;;;5.12;;
23270;SDS011;11804;51.118;17.058;2023-08-20T20:51:02;8.38;;;5.40;;
23270;SDS011;11804;51.118;17.058;2023-08-20T20:53:30;8.73;;;5.30;;
23270;SDS011;11804;51.118;17.058;2023-08-20T20:55:57;6.78;;;4.85;;
23270;SDS011;11804;51.118;17.058;2023-08-20T20:58:25;9.88;;;5.62;;
23270;SDS011;11804;51.118;17.058;2023-08-20T21:00:57;7.47;;;5.22;;
23270;SDS011;11804;51.118;17.058;2023-08-20T21:03:25;8.90;;;5.72;;
23270;SDS011;11804;51.118;17.058;2023-08-20T21:05:52;8.85;;;5.35;;
23270;SDS011;11804;51.118;17.058;2023-08-20T21:08:23;8.50;;;5.72;;
23270;SDS011;11804;51.118;17.058;2023-08-20T21:10:50;9.30;;;5.95;;
23270;SDS011;11804;51.118;17.058;2023-08-20T21:13:18;10.85;;;6.03;;
23270;SDS011;11804;51.118;17.058;2023-08-20T21:15:46;8.85;;;5.97;;
23270;SDS011;11804;51.118;17.058;2023-08-20T21:18:14;7.97;;;5.47;;
23270;SDS011;11804;51.118;17.058;2023-08-20T21:20:41;10.95;;;6.22;;
23270;SDS011;11804;51.118;17.058;2023-08-20T21:23:09;23.45;;;5.58;;
23270;SDS011;11804;51.118;17.058;2023-08-20T21:25:36;10.28;;;5.75;;
23270;SDS011;11804;51.118;17.058;2023-08-20T21:28:04;8.18;;;5.28;;
23270;SDS011;11804;51.118;17.058;2023-08-20T21:30:32;7.78;;;5.58;;
23270;SDS011;11804;51.118;17.058;2023-08-20T21:33:00;7.15;;;5.20;;
23270;SDS011;11804;51.118;17.058;2023-08-20T21:35:27;8.13;;;5.60;;
23270;SDS011;11804;51.118;17.058;2023-08-20T21:37:55;10.28;;;5.83;;
23270;SDS011;11804;51.118;17.058;2023-08-20T21:40:22;9.15;;;5.37;;
23270;SDS011;11804;51.118;17.058;2023-08-20T21:42:50;9.10;;;5.70;;
23270;SDS011;11804;51.118;17.058;2023-08-20T21:45:18;8.53;;;5.28;;
23270;SDS011;11804;51.118;17.058;2023-08-20T21:47:46;7.70;;;4.90;;
23270;SDS011;11804;51.118;17.058;2023-08-20T21:50:16;7.97;;;5.72;;
23270;SDS011;11804;51.118;17.058;2023-08-20T21:52:44;8.90;;;5.20;;
23270;SDS011;11804;51.118;17.058;2023-08-20T21:55:13;8.23;;;5.67;;
23270;SDS011;11804;51.118;17.058;2023-08-20T21:57:41;10.35;;;5.70;;
23270;SDS011;11804;51.118;17.058;2023-08-20T22:00:09;7.12;;;5.12;;
23270;SDS011;11804;51.118;17.058;2023-08-20T22:02:41;9.43;;;6.00;;
23270;SDS011;11804;51.118;17.058;2023-08-20T22:05:11;12.95;;;6.67;;
23270;SDS011;11804;51.118;17.058;2023-08-20T22:07:43;8.35;;;5.42;;
23270;SDS011;11804;51.118;17.058;2023-08-20T22:10:13;12.05;;;5.90;;
23270;SDS011;11804;51.118;17.058;2023-08-20T22:12:43;8.18;;;5.53;;
23270;SDS011;11804;51.118;17.058;2023-08-20T22:15:11;10.70;;;6.33;;
23270;SDS011;11804;51.118;17.058;2023-08-20T22:17:39;9.60;;;5.47;;
23270;SDS011;11804;51.118;17.058;2023-08-20T22:20:07;12.55;;;6.03;;
23270;SDS011;11804;51.118;17.058;2023-08-20T22:22:38;9.48;;;6.37;;
23270;SDS011;11804;51.118;17.058;2023-08-20T22:25:07;8.70;;;5.58;;
23270;SDS011;11804;51.118;17.058;2023-08-20T22:27:35;12.00;;;6.05;;
23270;SDS011;11804;51.118;17.058;2023-08-20T22:30:06;11.50;;;6.60;;
23270;SDS011;11804;51.118;17.058;2023-08-20T22:32:33;12.53;;;6.30;;
23270;SDS011;11804;51.118;17.058;2023-08-20T22:35:01;11.45;;;6.00;;
23270;SDS011;11804;51.118;17.058;2023-08-20T22:37:29;9.28;;;5.97;;
23270;SDS011;11804;51.118;17.058;2023-08-20T22:39:56;9.18;;;5.58;;
23270;SDS011;11804;51.118;17.058;2023-08-20T22:42:25;8.20;;;5.35;;
23270;SDS011;11804;51.118;17.058;2023-08-20T22:44:53;8.25;;;5.40;;
23270;SDS011;11804;51.118;17.058;2023-08-20T22:47:20;8.00;;;5.42;;
23270;SDS011;11804;51.118;17.058;2023-08-20T22:49:48;7.30;;;5.17;;
23270;SDS011;11804;51.118;17.058;2023-08-20T22:52:16;6.67;;;4.97;;
23270;SDS011;11804;51.118;17.058;2023-08-20T22:54:44;8.73;;;5.53;;
23270;SDS011;11804;51.118;17.058;2023-08-20T22:57:11;7.72;;;5.00;;
23270;SDS011;11804;51.118;17.058;2023-08-20T22:59:39;7.47;;;5.35;;
23270;SDS011;11804;51.118;17.058;2023-08-20T23:02:07;8.15;;;5.90;;
23270;SDS011;11804;51.118;17.058;2023-08-20T23:04:34;7.92;;;5.78;;
23270;SDS011;11804;51.118;17.058;2023-08-20T23:07:04;9.05;;;6.08;;
23270;SDS011;11804;51.118;17.058;2023-08-20T23:09:31;6.60;;;5.10;;
23270;SDS011;11804;51.118;17.058;2023-08-20T23:11:59;9.85;;;5.62;;
23270;SDS011;11804;51.118;17.058;2023-08-20T23:14:26;8.25;;;5.87;;
23270;SDS011;11804;51.118;17.058;2023-08-20T23:16:54;9.00;;;5.03;;
23270;SDS011;11804;51.118;17.058;2023-08-20T23:19:22;7.37;;;5.15;;
23270;SDS011;11804;51.118;17.058;2023-08-20T23:21:49;7.17;;;4.87;;
23270;SDS011;11804;51.118;17.058;2023-08-20T23:24:17;10.98;;;6.05;;
23270;SDS011;11804;51.118;17.058;2023-08-20T23:26:46;8.95;;;5.72;;
23270;SDS011;11804;51.118;17.058;2023-08-20T23:29:14;7.62;;;5.03;;
23270;SDS011;11804;51.118;17.058;2023-08-20T23:31:41;9.43;;;5.92;;
23270;SDS011;11804;51.118;17.058;2023-08-20T23:34:10;8.45;;;5.15;;
23270;SDS011;11804;51.118;17.058;2023-08-20T23:36:38;8.65;;;5.15;;
23270;SDS011;11804;51.118;17.058;2023-08-20T23:39:05;8.10;;;5.45;;
23270;SDS011;11804;51.118;17.058;2023-08-20T23:41:33;8.53;;;5.45;;
23270;SDS011;11804;51.118;17.058;2023-08-20T23:44:01;8.88;;;5.45;;
23270;SDS011;11804;51.118;17.058;2023-08-20T23:46:29;10.45;;;5.65;;
23270;SDS011;11804;51.118;17.058;2023-08-20T23:48:56;7.87;;;5.40;;
23270;SDS011;11804;51.118;17.058;2023-08-20T23:51:24;7.85;;;5.47;;
23270;SDS011;11804;51.118;17.058;2023-08-20T23:53:51;9.28;;;5.28;;
23270;SDS011;11804;51.118;17.058;2023-08-20T23:56:19;10.58;;;5.95;;
23270;SDS011;11804;51.118;17.058;2023-08-20T23:58:48;10.43;;;5.58;;
